PWSweather.com
Personal Weather Stations
Station Observations
PICKERING
North Yorkshire, PickeringGB

North YorkshirePickeringGB

Lat: 54.2494, Lon: -0.7725

Elevation: 192

Station Type: Oregon Scientific WMR100

http://www.yorkshirewalker.co.uk/weather/

High Low Average
Temperature 41.7°F5.4°C 32.5°F0.3°C 37.5°F3.1°C
Dew Point 35.6°F2.0°C 26.6°F-3.0°C 31.2°F-0.4°C
Winds 5.3 mph 8.5 kmh Calm Calm 1.0 mph SSW1.6 kmh SSW
Wind Gusts 10.1 mph16.3 kmh -- 2.0 mph3.2 kmh
Humidity 79% 71% 77%
Pressure 30.57 in1035.2 mb 30.48 in1032.2 mb -
Precipitation 0.00 in0.0 mm - -
Hour Temp Dew Point Humidity Winds Wind Gusts Pressure Precip Precip Rate Daily Precip Total
12:00 AM 32.7°F0.4°C 26.6°F-3.0°C 76% Calm Calm -- 30.54 in1034.2 mb 0.00 in0.0 mm 0.00 in0.0 mm 0.00 in0.0 mm
12:05 AM 32.9°F0.5°C 26.6°F-3.0°C 76% Calm Calm -- 30.54 in1034.2 mb 0.00 in0.0 mm 0.00 in0.0 mm 0.00 in0.0 mm
12:10 AM 32.9°F0.5°C 26.6°F-3.0°C 76% Calm Calm -- 30.57 in1035.2 mb 0.00 in0.0 mm 0.00 in0.0 mm 0.00 in0.0 mm
12:15 AM 32.7°F0.4°C 26.6°F-3.0°C 76% Calm Calm -- 30.57 in1035.2 mb 0.00 in0.0 mm 0.00 in0.0 mm 0.00 in0.0 mm
12:20 AM 32.7°F0.4°C 26.6°F-3.0°C 76% Calm Calm -- 30.57 in1035.2 mb 0.00 in0.0 mm 0.00 in0.0 mm 0.00 in0.0 mm
12:25 AM 32.5°F0.3°C 26.6°F-3.0°C 76% Calm Calm -- 30.54 in1034.2 mb 0.00 in0.0 mm 0.00 in0.0 mm 0.00 in0.0 mm
12:30 AM 32.5°F0.3°C 26.6°F-3.0°C 76% Calm Calm -- 30.54 in1034.2 mb 0.00 in0.0 mm 0.00 in0.0 mm 0.00 in0.0 mm
12:35 AM 32.5°F0.3°C 26.6°F-3.0°C 76% Calm Calm -- 30.54 in1034.2 mb 0.00 in0.0 mm 0.00 in0.0 mm 0.00 in0.0 mm
12:40 AM 32.5°F0.3°C 26.6°F-3.0°C 76% Calm Calm -- 30.54 in1034.2 mb 0.00 in0.0 mm 0.00 in0.0 mm 0.00 in0.0 mm
12:45 AM 32.5°F0.3°C 26.6°F-3.0°C 77% Calm Calm -- 30.54 in1034.2 mb 0.00 in0.0 mm 0.00 in0.0 mm 0.00 in0.0 mm
12:50 AM 32.7°F0.4°C 26.6°F-3.0°C 77% 0.1 mph WSW0.2 kmh WSW 1.1 mph1.8 kmh 30.54 in1034.2 mb 0.00 in0.0 mm 0.00 in0.0 mm 0.00 in0.0 mm
12:55 AM 32.7°F0.4°C 26.6°F-3.0°C 76% 0.1 mph WSW0.2 kmh WSW 1.1 mph1.8 kmh 30.54 in1034.2 mb 0.00 in0.0 mm 0.00 in0.0 mm 0.00 in0.0 mm
01:00 AM 32.7°F0.4°C 26.6°F-3.0°C 76% Calm Calm -- 30.54 in1034.2 mb 0.00 in0.0 mm 0.00 in0.0 mm 0.00 in0.0 mm
01:05 AM 32.5°F0.3°C 26.6°F-3.0°C 77% Calm Calm -- 30.54 in1034.2 mb 0.00 in0.0 mm 0.00 in0.0 mm 0.00 in0.0 mm
01:10 AM 32.7°F0.4°C 26.6°F-3.0°C 77% 0.1 mph ESE0.2 kmh ESE 0.9 mph1.4 kmh 30.54 in1034.2 mb 0.00 in0.0 mm 0.00 in0.0 mm 0.00 in0.0 mm
01:15 AM 32.7°F0.4°C 26.6°F-3.0°C 77% 0.1 mph E0.2 kmh E 0.9 mph1.4 kmh 30.54 in1034.2 mb 0.00 in0.0 mm 0.00 in0.0 mm 0.00 in0.0 mm
01:20 AM 32.9°F0.5°C 26.6°F-3.0°C 77% 0.4 mph ENE0.6 kmh ENE 2.0 mph3.2 kmh 30.54 in1034.2 mb 0.00 in0.0 mm 0.00 in0.0 mm 0.00 in0.0 mm
01:25 AM 32.9°F0.5°C 26.6°F-3.0°C 77% 0.4 mph ENE0.6 kmh ENE 2.0 mph3.2 kmh 30.54 in1034.2 mb 0.00 in0.0 mm 0.00 in0.0 mm 0.00 in0.0 mm
01:30 AM 32.9°F0.5°C 26.6°F-3.0°C 77% 0.1 mph E0.2 kmh E 0.9 mph1.4 kmh 30.54 in1034.2 mb 0.00 in0.0 mm 0.00 in0.0 mm 0.00 in0.0 mm
01:35 AM 32.9°F0.5°C 26.6°F-3.0°C 76% 0.2 mph E0.3 kmh E 1.1 mph1.8 kmh 30.54 in1034.2 mb 0.00 in0.0 mm 0.00 in0.0 mm 0.00 in0.0 mm
01:40 AM 32.9°F0.5°C 26.6°F-3.0°C 76% 0.2 mph E0.3 kmh E 1.1 mph1.8 kmh 30.54 in1034.2 mb 0.00 in0.0 mm 0.00 in0.0 mm 0.00 in0.0 mm
01:45 AM 32.9°F0.5°C 26.6°F-3.0°C 76% Calm Calm -- 30.54 in1034.2 mb 0.00 in0.0 mm 0.00 in0.0 mm 0.00 in0.0 mm
01:50 AM 32.9°F0.5°C 26.6°F-3.0°C 77% 0.1 mph E0.2 kmh E 0.9 mph1.4 kmh 30.54 in1034.2 mb 0.00 in0.0 mm 0.00 in0.0 mm 0.00 in0.0 mm
01:55 AM 32.9°F0.5°C 26.6°F-3.0°C 77% 0.1 mph E0.2 kmh E 0.9 mph1.4 kmh 30.54 in1034.2 mb 0.00 in0.0 mm 0.00 in0.0 mm 0.00 in0.0 mm
02:00 AM 32.9°F0.5°C 26.6°F-3.0°C 77% Calm Calm -- 30.54 in1034.2 mb 0.00 in0.0 mm 0.00 in0.0 mm 0.00 in0.0 mm
02:05 AM 32.9°F0.5°C 26.6°F-3.0°C 77% Calm Calm -- 30.54 in1034.2 mb 0.00 in0.0 mm 0.00 in0.0 mm 0.00 in0.0 mm
02:10 AM 33.1°F0.6°C 26.6°F-3.0°C 77% Calm Calm -- 30.54 in1034.2 mb 0.00 in0.0 mm 0.00 in0.0 mm 0.00 in0.0 mm
02:15 AM 33.1°F0.6°C 26.6°F-3.0°C 77% Calm Calm -- 30.54 in1034.2 mb 0.00 in0.0 mm 0.00 in0.0 mm 0.00 in0.0 mm
02:20 AM 33.1°F0.6°C 26.6°F-3.0°C 77% 0.1 mph S0.2 kmh S 0.9 mph1.4 kmh 30.54 in1034.2 mb 0.00 in0.0 mm 0.00 in0.0 mm 0.00 in0.0 mm
02:25 AM 33.1°F0.6°C 26.6°F-3.0°C 77% 0.1 mph S0.2 kmh S 0.9 mph1.4 kmh 30.54 in1034.2 mb 0.00 in0.0 mm 0.00 in0.0 mm 0.00 in0.0 mm
02:30 AM 33.1°F0.6°C 26.6°F-3.0°C 77% 0.1 mph S0.2 kmh S 0.9 mph1.4 kmh 30.54 in1034.2 mb 0.00 in0.0 mm 0.00 in0.0 mm 0.00 in0.0 mm
02:35 AM 33.3°F0.7°C 26.6°F-3.0°C 77% Calm Calm -- 30.54 in1034.2 mb 0.00 in0.0 mm 0.00 in0.0 mm 0.00 in0.0 mm
02:40 AM 33.3°F0.7°C 26.6°F-3.0°C 77% 0.3 mph E0.5 kmh E 1.3 mph2.1 kmh 30.54 in1034.2 mb 0.00 in0.0 mm 0.00 in0.0 mm 0.00 in0.0 mm
02:45 AM 33.3°F0.7°C 26.6°F-3.0°C 77% 0.3 mph E0.5 kmh E 1.3 mph2.1 kmh 30.54 in1034.2 mb 0.00 in0.0 mm 0.00 in0.0 mm 0.00 in0.0 mm
02:50 AM 33.3°F0.7°C 26.6°F-3.0°C 77% 0.2 mph E0.3 kmh E 1.1 mph1.8 kmh 30.54 in1034.2 mb 0.00 in0.0 mm 0.00 in0.0 mm 0.00 in0.0 mm
02:55 AM 33.3°F0.7°C 26.6°F-3.0°C 76% 0.1 mph E0.2 kmh E 0.9 mph1.4 kmh 30.54 in1034.2 mb 0.00 in0.0 mm 0.00 in0.0 mm 0.00 in0.0 mm
03:00 AM 33.3°F0.7°C 26.6°F-3.0°C 76% Calm Calm -- 30.54 in1034.2 mb 0.00 in0.0 mm 0.00 in0.0 mm 0.00 in0.0 mm
03:05 AM 33.3°F0.7°C 26.6°F-3.0°C 76% Calm Calm -- 30.54 in1034.2 mb 0.00 in0.0 mm 0.00 in0.0 mm 0.00 in0.0 mm
03:10 AM 33.3°F0.7°C 26.6°F-3.0°C 76% 0.1 mph NE0.2 kmh NE 0.9 mph1.4 kmh 30.54 in1034.2 mb 0.00 in0.0 mm 0.00 in0.0 mm 0.00 in0.0 mm
03:15 AM 33.3°F0.7°C 26.6°F-3.0°C 76% 0.1 mph NE0.2 kmh NE 0.9 mph1.4 kmh 30.54 in1034.2 mb 0.00 in0.0 mm 0.00 in0.0 mm 0.00 in0.0 mm
03:20 AM 33.3°F0.7°C 26.6°F-3.0°C 76% 0.2 mph E0.3 kmh E 1.1 mph1.8 kmh 30.54 in1034.2 mb 0.00 in0.0 mm 0.00 in0.0 mm 0.00 in0.0 mm
03:25 AM 33.4°F0.8°C 26.6°F-3.0°C 76% 0.5 mph ENE0.8 kmh ENE 1.6 mph2.6 kmh 30.54 in1034.2 mb 0.00 in0.0 mm 0.00 in0.0 mm 0.00 in0.0 mm
03:30 AM 33.4°F0.8°C 26.6°F-3.0°C 76% 0.7 mph E1.1 kmh E 2.0 mph3.2 kmh 30.54 in1034.2 mb 0.00 in0.0 mm 0.00 in0.0 mm 0.00 in0.0 mm
03:35 AM 33.4°F0.8°C 28.4°F-2.0°C 77% 0.3 mph E0.5 kmh E 2.0 mph3.2 kmh 30.54 in1034.2 mb 0.00 in0.0 mm 0.00 in0.0 mm 0.00 in0.0 mm
03:40 AM 33.4°F0.8°C 28.4°F-2.0°C 77% Calm Calm -- 30.54 in1034.2 mb 0.00 in0.0 mm 0.00 in0.0 mm 0.00 in0.0 mm
03:45 AM 33.4°F0.8°C 28.4°F-2.0°C 77% Calm Calm -- 30.54 in1034.2 mb 0.00 in0.0 mm 0.00 in0.0 mm 0.00 in0.0 mm
03:50 AM 33.4°F0.8°C 28.4°F-2.0°C 77% Calm Calm -- 30.54 in1034.2 mb 0.00 in0.0 mm 0.00 in0.0 mm 0.00 in0.0 mm
03:55 AM 33.6°F0.9°C 28.4°F-2.0°C 77% Calm Calm -- 30.54 in1034.2 mb 0.00 in0.0 mm 0.00 in0.0 mm 0.00 in0.0 mm
04:00 AM 33.6°F0.9°C 28.4°F-2.0°C 77% Calm Calm -- 30.54 in1034.2 mb 0.00 in0.0 mm 0.00 in0.0 mm 0.00 in0.0 mm
04:05 AM 33.6°F0.9°C 28.4°F-2.0°C 77% Calm Calm -- 30.54 in1034.2 mb 0.00 in0.0 mm 0.00 in0.0 mm 0.00 in0.0 mm
04:10 AM 33.6°F0.9°C 28.4°F-2.0°C 77% Calm Calm -- 30.54 in1034.2 mb 0.00 in0.0 mm 0.00 in0.0 mm 0.00 in0.0 mm
04:15 AM 33.6°F0.9°C 28.4°F-2.0°C 77% Calm Calm -- 30.54 in1034.2 mb 0.00 in0.0 mm 0.00 in0.0 mm 0.00 in0.0 mm
04:20 AM 33.6°F0.9°C 28.4°F-2.0°C 77% Calm Calm -- 30.54 in1034.2 mb 0.00 in0.0 mm 0.00 in0.0 mm 0.00 in0.0 mm
04:25 AM 33.6°F0.9°C 28.4°F-2.0°C 77% Calm Calm -- 30.54 in1034.2 mb 0.00 in0.0 mm 0.00 in0.0 mm 0.00 in0.0 mm
04:30 AM 33.6°F0.9°C 28.4°F-2.0°C 77% Calm Calm -- 30.54 in1034.2 mb 0.00 in0.0 mm 0.00 in0.0 mm 0.00 in0.0 mm
04:35 AM 33.6°F0.9°C 28.4°F-2.0°C 77% 0.1 mph WNW0.2 kmh WNW 0.9 mph1.4 kmh 30.54 in1034.2 mb 0.00 in0.0 mm 0.00 in0.0 mm 0.00 in0.0 mm
04:40 AM 33.6°F0.9°C 28.4°F-2.0°C 77% 0.2 mph W0.3 kmh W 1.1 mph1.8 kmh 30.51 in1033.2 mb 0.00 in0.0 mm 0.00 in0.0 mm 0.00 in0.0 mm
04:45 AM 33.6°F0.9°C 28.4°F-2.0°C 77% 0.3 mph W0.5 kmh W 1.1 mph1.8 kmh 30.51 in1033.2 mb 0.00 in0.0 mm 0.00 in0.0 mm 0.00 in0.0 mm
04:50 AM 33.6°F0.9°C 28.4°F-2.0°C 77% 0.1 mph WNW0.2 kmh WNW 1.1 mph1.8 kmh 30.51 in1033.2 mb 0.00 in0.0 mm 0.00 in0.0 mm 0.00 in0.0 mm
04:55 AM 33.6°F0.9°C 28.4°F-2.0°C 77% 0.4 mph NNE0.6 kmh NNE 2.0 mph3.2 kmh 30.51 in1033.2 mb 0.00 in0.0 mm 0.00 in0.0 mm 0.00 in0.0 mm
05:00 AM 33.6°F0.9°C 28.4°F-2.0°C 77% 0.4 mph NNE0.6 kmh NNE 2.0 mph3.2 kmh 30.51 in1033.2 mb 0.00 in0.0 mm 0.00 in0.0 mm 0.00 in0.0 mm
05:05 AM 33.6°F0.9°C 28.4°F-2.0°C 77% 0.3 mph N0.5 kmh N 2.0 mph3.2 kmh 30.51 in1033.2 mb 0.00 in0.0 mm 0.00 in0.0 mm 0.00 in0.0 mm
05:10 AM 33.6°F0.9°C 28.4°F-2.0°C 77% 0.3 mph WNW0.5 kmh WNW 1.1 mph1.8 kmh 30.51 in1033.2 mb 0.00 in0.0 mm 0.00 in0.0 mm 0.00 in0.0 mm
05:15 AM 33.6°F0.9°C 28.4°F-2.0°C 77% 0.4 mph WNW0.6 kmh WNW 1.3 mph2.1 kmh 30.51 in1033.2 mb 0.00 in0.0 mm 0.00 in0.0 mm 0.00 in0.0 mm
05:20 AM 33.8°F1.0°C 28.4°F-2.0°C 77% 0.6 mph W1.0 kmh W 1.3 mph2.1 kmh 30.51 in1033.2 mb 0.00 in0.0 mm 0.00 in0.0 mm 0.00 in0.0 mm
05:25 AM 33.8°F1.0°C 28.4°F-2.0°C 77% 0.7 mph WSW1.1 kmh WSW 1.3 mph2.1 kmh 30.51 in1033.2 mb 0.00 in0.0 mm 0.00 in0.0 mm 0.00 in0.0 mm
05:30 AM 33.8°F1.0°C 28.4°F-2.0°C 77% 0.4 mph NW0.6 kmh NW 1.1 mph1.8 kmh 30.51 in1033.2 mb 0.00 in0.0 mm 0.00 in0.0 mm 0.00 in0.0 mm
05:35 AM 33.8°F1.0°C 28.4°F-2.0°C 77% 0.2 mph WNW0.3 kmh WNW 0.9 mph1.4 kmh 30.51 in1033.2 mb 0.00 in0.0 mm 0.00 in0.0 mm 0.00 in0.0 mm
05:40 AM 33.8°F1.0°C 28.4°F-2.0°C 77% 0.1 mph N0.2 kmh N 0.9 mph1.4 kmh 30.51 in1033.2 mb 0.00 in0.0 mm 0.00 in0.0 mm 0.00 in0.0 mm
05:45 AM 33.8°F1.0°C 28.4°F-2.0°C 77% 0.1 mph NE0.2 kmh NE 0.9 mph1.4 kmh 30.51 in1033.2 mb 0.00 in0.0 mm 0.00 in0.0 mm 0.00 in0.0 mm
05:50 AM 33.8°F1.0°C 28.4°F-2.0°C 77% 0.1 mph NE0.2 kmh NE 0.9 mph1.4 kmh 30.51 in1033.2 mb 0.00 in0.0 mm 0.00 in0.0 mm 0.00 in0.0 mm
05:55 AM 33.8°F1.0°C 28.4°F-2.0°C 77% 0.2 mph NE0.3 kmh NE 0.9 mph1.4 kmh 30.51 in1033.2 mb 0.00 in0.0 mm 0.00 in0.0 mm 0.00 in0.0 mm
06:00 AM 34.0°F1.1°C 28.4°F-2.0°C 77% 0.3 mph NE0.5 kmh NE 1.1 mph1.8 kmh 30.51 in1033.2 mb 0.00 in0.0 mm 0.00 in0.0 mm 0.00 in0.0 mm
06:05 AM 34.0°F1.1°C 28.4°F-2.0°C 77% 0.2 mph NE0.3 kmh NE 1.1 mph1.8 kmh 30.51 in1033.2 mb 0.00 in0.0 mm 0.00 in0.0 mm 0.00 in0.0 mm
06:10 AM 34.0°F1.1°C 28.4°F-2.0°C 77% 0.1 mph ENE0.2 kmh ENE 1.1 mph1.8 kmh 30.51 in1033.2 mb 0.00 in0.0 mm 0.00 in0.0 mm 0.00 in0.0 mm
06:15 AM 34.0°F1.1°C 28.4°F-2.0°C 77% 0.1 mph ENE0.2 kmh ENE 1.1 mph1.8 kmh 30.51 in1033.2 mb 0.00 in0.0 mm 0.00 in0.0 mm 0.00 in0.0 mm
06:20 AM 34.0°F1.1°C 28.4°F-2.0°C 77% Calm Calm -- 30.51 in1033.2 mb 0.00 in0.0 mm 0.00 in0.0 mm 0.00 in0.0 mm
06:25 AM 34.2°F1.2°C 28.4°F-2.0°C 77% 0.3 mph E0.5 kmh E 1.1 mph1.8 kmh 30.51 in1033.2 mb 0.00 in0.0 mm 0.00 in0.0 mm 0.00 in0.0 mm
06:30 AM 34.2°F1.2°C 28.4°F-2.0°C 78% 0.3 mph E0.5 kmh E 1.1 mph1.8 kmh 30.51 in1033.2 mb 0.00 in0.0 mm 0.00 in0.0 mm 0.00 in0.0 mm
06:35 AM 34.2°F1.2°C 28.4°F-2.0°C 77% Calm Calm -- 30.51 in1033.2 mb 0.00 in0.0 mm 0.00 in0.0 mm 0.00 in0.0 mm
06:40 AM 34.2°F1.2°C 28.4°F-2.0°C 78% Calm Calm -- 30.51 in1033.2 mb 0.00 in0.0 mm 0.00 in0.0 mm 0.00 in0.0 mm
06:45 AM 34.2°F1.2°C 28.4°F-2.0°C 78% Calm Calm -- 30.51 in1033.2 mb 0.00 in0.0 mm 0.00 in0.0 mm 0.00 in0.0 mm
06:50 AM 34.2°F1.2°C 28.4°F-2.0°C 78% Calm Calm -- 30.51 in1033.2 mb 0.00 in0.0 mm 0.00 in0.0 mm 0.00 in0.0 mm
06:55 AM 34.2°F1.2°C 28.4°F-2.0°C 78% 0.1 mph SW0.2 kmh SW 1.1 mph1.8 kmh 30.51 in1033.2 mb 0.00 in0.0 mm 0.00 in0.0 mm 0.00 in0.0 mm
07:00 AM 34.2°F1.2°C 28.4°F-2.0°C 78% 0.3 mph WSW0.5 kmh WSW 1.1 mph1.8 kmh 30.51 in1033.2 mb 0.00 in0.0 mm 0.00 in0.0 mm 0.00 in0.0 mm
07:05 AM 34.3°F1.3°C 28.4°F-2.0°C 78% 0.5 mph WSW0.8 kmh WSW 1.3 mph2.1 kmh 30.51 in1033.2 mb 0.00 in0.0 mm 0.00 in0.0 mm 0.00 in0.0 mm
07:10 AM 34.3°F1.3°C 28.4°F-2.0°C 78% 0.4 mph WSW0.6 kmh WSW 1.3 mph2.1 kmh 30.51 in1033.2 mb 0.00 in0.0 mm 0.00 in0.0 mm 0.00 in0.0 mm
07:15 AM 34.3°F1.3°C 28.4°F-2.0°C 78% 0.6 mph WSW1.0 kmh WSW 2.2 mph3.5 kmh 30.51 in1033.2 mb 0.00 in0.0 mm 0.00 in0.0 mm 0.00 in0.0 mm
07:20 AM 34.3°F1.3°C 28.4°F-2.0°C 78% 1.1 mph WSW1.8 kmh WSW 2.2 mph3.5 kmh 30.51 in1033.2 mb 0.00 in0.0 mm 0.00 in0.0 mm 0.00 in0.0 mm
07:25 AM 34.3°F1.3°C 28.4°F-2.0°C 78% 0.6 mph WSW1.0 kmh WSW 2.2 mph3.5 kmh 30.51 in1033.2 mb 0.00 in0.0 mm 0.00 in0.0 mm 0.00 in0.0 mm
07:30 AM 34.3°F1.3°C 28.4°F-2.0°C 78% 0.1 mph WSW0.2 kmh WSW 0.9 mph1.4 kmh 30.51 in1033.2 mb 0.00 in0.0 mm 0.00 in0.0 mm 0.00 in0.0 mm
07:35 AM 34.5°F1.4°C 28.4°F-2.0°C 78% Calm Calm -- 30.51 in1033.2 mb 0.00 in0.0 mm 0.00 in0.0 mm 0.00 in0.0 mm
07:40 AM 34.5°F1.4°C 28.4°F-2.0°C 78% 0.7 mph WSW1.1 kmh WSW 2.7 mph4.3 kmh 30.51 in1033.2 mb 0.00 in0.0 mm 0.00 in0.0 mm 0.00 in0.0 mm
07:45 AM 34.5°F1.4°C 28.4°F-2.0°C 78% 0.8 mph WSW1.3 kmh WSW 2.7 mph4.3 kmh 30.51 in1033.2 mb 0.00 in0.0 mm 0.00 in0.0 mm 0.00 in0.0 mm
07:50 AM 34.5°F1.4°C 28.4°F-2.0°C 78% 0.2 mph W0.3 kmh W 0.9 mph1.4 kmh 30.51 in1033.2 mb 0.00 in0.0 mm 0.00 in0.0 mm 0.00 in0.0 mm
07:55 AM 34.5°F1.4°C 28.4°F-2.0°C 78% Calm Calm -- 30.51 in1033.2 mb 0.00 in0.0 mm 0.00 in0.0 mm 0.00 in0.0 mm
08:00 AM 34.5°F1.4°C 28.4°F-2.0°C 78% 0.4 mph WSW0.6 kmh WSW 1.3 mph2.1 kmh 30.51 in1033.2 mb 0.00 in0.0 mm 0.00 in0.0 mm 0.00 in0.0 mm
08:05 AM 34.5°F1.4°C 28.4°F-2.0°C 78% 0.4 mph WSW0.6 kmh WSW 1.3 mph2.1 kmh 30.51 in1033.2 mb 0.00 in0.0 mm 0.00 in0.0 mm 0.00 in0.0 mm
08:10 AM 34.5°F1.4°C 28.4°F-2.0°C 78% 0.1 mph NNE0.2 kmh NNE 0.9 mph1.4 kmh 30.51 in1033.2 mb 0.00 in0.0 mm 0.00 in0.0 mm 0.00 in0.0 mm
08:15 AM 34.5°F1.4°C 28.4°F-2.0°C 78% 0.1 mph WNW0.2 kmh WNW 0.9 mph1.4 kmh 30.51 in1033.2 mb 0.00 in0.0 mm 0.00 in0.0 mm 0.00 in0.0 mm
08:20 AM 34.5°F1.4°C 28.4°F-2.0°C 78% 0.3 mph WSW0.5 kmh WSW 0.9 mph1.4 kmh 30.51 in1033.2 mb 0.00 in0.0 mm 0.00 in0.0 mm 0.00 in0.0 mm
08:25 AM 34.5°F1.4°C 28.4°F-2.0°C 78% 0.2 mph SW0.3 kmh SW 0.9 mph1.4 kmh 30.51 in1033.2 mb 0.00 in0.0 mm 0.00 in0.0 mm 0.00 in0.0 mm
08:30 AM 34.7°F1.5°C 28.4°F-2.0°C 78% 0.1 mph NE0.2 kmh NE 1.1 mph1.8 kmh 30.51 in1033.2 mb 0.00 in0.0 mm 0.00 in0.0 mm 0.00 in0.0 mm
08:35 AM 34.7°F1.5°C 28.4°F-2.0°C 78% 0.3 mph N0.5 kmh N 1.1 mph1.8 kmh 30.51 in1033.2 mb 0.00 in0.0 mm 0.00 in0.0 mm 0.00 in0.0 mm
08:40 AM 34.7°F1.5°C 28.4°F-2.0°C 78% 0.3 mph WSW0.5 kmh WSW 1.3 mph2.1 kmh 30.51 in1033.2 mb 0.00 in0.0 mm 0.00 in0.0 mm 0.00 in0.0 mm
08:45 AM 34.7°F1.5°C 28.4°F-2.0°C 78% 0.6 mph WSW1.0 kmh WSW 1.3 mph2.1 kmh 30.51 in1033.2 mb 0.00 in0.0 mm 0.00 in0.0 mm 0.00 in0.0 mm
08:50 AM 34.7°F1.5°C 28.4°F-2.0°C 78% 0.5 mph WSW0.8 kmh WSW 1.1 mph1.8 kmh 30.51 in1033.2 mb 0.00 in0.0 mm 0.00 in0.0 mm 0.00 in0.0 mm
08:55 AM 34.7°F1.5°C 28.4°F-2.0°C 78% 0.1 mph WNW0.2 kmh WNW 0.9 mph1.4 kmh 30.51 in1033.2 mb 0.00 in0.0 mm 0.00 in0.0 mm 0.00 in0.0 mm
09:00 AM 34.7°F1.5°C 28.4°F-2.0°C 78% Calm Calm -- 30.51 in1033.2 mb 0.00 in0.0 mm 0.00 in0.0 mm 0.00 in0.0 mm
09:05 AM 34.9°F1.6°C 28.4°F-2.0°C 78% Calm Calm -- 30.51 in1033.2 mb 0.00 in0.0 mm 0.00 in0.0 mm 0.00 in0.0 mm
09:10 AM 34.9°F1.6°C 28.4°F-2.0°C 78% Calm Calm -- 30.54 in1034.2 mb 0.00 in0.0 mm 0.00 in0.0 mm 0.00 in0.0 mm
09:15 AM 34.9°F1.6°C 28.4°F-2.0°C 78% 0.1 mph W0.2 kmh W 0.9 mph1.4 kmh 30.54 in1034.2 mb 0.00 in0.0 mm 0.00 in0.0 mm 0.00 in0.0 mm
09:20 AM 34.9°F1.6°C 28.4°F-2.0°C 78% 0.4 mph W0.6 kmh W 1.1 mph1.8 kmh 30.54 in1034.2 mb 0.00 in0.0 mm 0.00 in0.0 mm 0.00 in0.0 mm
09:25 AM 34.9°F1.6°C 28.4°F-2.0°C 78% 0.4 mph W0.6 kmh W 1.1 mph1.8 kmh 30.54 in1034.2 mb 0.00 in0.0 mm 0.00 in0.0 mm 0.00 in0.0 mm
09:30 AM 34.9°F1.6°C 28.4°F-2.0°C 78% 0.2 mph W0.3 kmh W 0.9 mph1.4 kmh 30.54 in1034.2 mb 0.00 in0.0 mm 0.00 in0.0 mm 0.00 in0.0 mm
09:35 AM 34.9°F1.6°C 28.4°F-2.0°C 78% 0.1 mph W0.2 kmh W 0.9 mph1.4 kmh 30.54 in1034.2 mb 0.00 in0.0 mm 0.00 in0.0 mm 0.00 in0.0 mm
09:40 AM 35.1°F1.7°C 28.4°F-2.0°C 78% Calm Calm -- 30.51 in1033.2 mb 0.00 in0.0 mm 0.00 in0.0 mm 0.00 in0.0 mm
09:45 AM 35.1°F1.7°C 28.4°F-2.0°C 78% Calm Calm -- 30.51 in1033.2 mb 0.00 in0.0 mm 0.00 in0.0 mm 0.00 in0.0 mm
09:50 AM 35.2°F1.8°C 28.4°F-2.0°C 78% Calm Calm -- 30.51 in1033.2 mb 0.00 in0.0 mm 0.00 in0.0 mm 0.00 in0.0 mm
09:55 AM 35.2°F1.8°C 28.4°F-2.0°C 78% Calm Calm -- 30.51 in1033.2 mb 0.00 in0.0 mm 0.00 in0.0 mm 0.00 in0.0 mm
10:00 AM 35.2°F1.8°C 28.4°F-2.0°C 78% 0.1 mph SW0.2 kmh SW 0.9 mph1.4 kmh 30.51 in1033.2 mb 0.00 in0.0 mm 0.00 in0.0 mm 0.00 in0.0 mm
10:05 AM 35.4°F1.9°C 30.2°F-1.0°C 78% 0.4 mph WSW0.6 kmh WSW 1.1 mph1.8 kmh 30.51 in1033.2 mb 0.00 in0.0 mm 0.00 in0.0 mm 0.00 in0.0 mm
10:10 AM 35.4°F1.9°C 30.2°F-1.0°C 78% 0.4 mph WSW0.6 kmh WSW 1.1 mph1.8 kmh 30.51 in1033.2 mb 0.00 in0.0 mm 0.00 in0.0 mm 0.00 in0.0 mm
10:15 AM 35.6°F2.0°C 30.2°F-1.0°C 78% 0.1 mph WSW0.2 kmh WSW 0.9 mph1.4 kmh 30.51 in1033.2 mb 0.00 in0.0 mm 0.00 in0.0 mm 0.00 in0.0 mm
10:20 AM 35.6°F2.0°C 30.2°F-1.0°C 78% 0.1 mph WSW0.2 kmh WSW 1.1 mph1.8 kmh 30.51 in1033.2 mb 0.00 in0.0 mm 0.00 in0.0 mm 0.00 in0.0 mm
10:25 AM 35.8°F2.1°C 30.2°F-1.0°C 78% 0.5 mph WSW0.8 kmh WSW 1.3 mph2.1 kmh 30.51 in1033.2 mb 0.00 in0.0 mm 0.00 in0.0 mm 0.00 in0.0 mm
10:30 AM 35.8°F2.1°C 30.2°F-1.0°C 78% 1.1 mph WSW1.8 kmh WSW 2.9 mph4.7 kmh 30.51 in1033.2 mb 0.00 in0.0 mm 0.00 in0.0 mm 0.00 in0.0 mm
10:35 AM 36.0°F2.2°C 30.2°F-1.0°C 78% 1.2 mph WSW1.9 kmh WSW 2.9 mph4.7 kmh 30.51 in1033.2 mb 0.00 in0.0 mm 0.00 in0.0 mm 0.00 in0.0 mm
10:40 AM 36.1°F2.3°C 30.2°F-1.0°C 78% 1.8 mph WSW2.9 kmh WSW 2.7 mph4.3 kmh 30.51 in1033.2 mb 0.00 in0.0 mm 0.00 in0.0 mm 0.00 in0.0 mm
10:45 AM 36.3°F2.4°C 30.2°F-1.0°C 78% 2.2 mph WSW3.5 kmh WSW 2.9 mph4.7 kmh 30.51 in1033.2 mb 0.00 in0.0 mm 0.00 in0.0 mm 0.00 in0.0 mm
10:50 AM 36.5°F2.5°C 30.2°F-1.0°C 78% 2.1 mph WSW3.4 kmh WSW 3.4 mph5.5 kmh 30.51 in1033.2 mb 0.00 in0.0 mm 0.00 in0.0 mm 0.00 in0.0 mm
10:55 AM 36.7°F2.6°C 30.2°F-1.0°C 78% 2.2 mph WSW3.5 kmh WSW 3.4 mph5.5 kmh 30.51 in1033.2 mb 0.00 in0.0 mm 0.00 in0.0 mm 0.00 in0.0 mm
11:00 AM 36.9°F2.7°C 30.2°F-1.0°C 78% 1.6 mph WSW2.6 kmh WSW 2.9 mph4.7 kmh 30.51 in1033.2 mb 0.00 in0.0 mm 0.00 in0.0 mm 0.00 in0.0 mm
11:05 AM 37.0°F2.8°C 32.0°F0.0°C 78% 1.3 mph WSW2.1 kmh WSW 2.9 mph4.7 kmh 30.51 in1033.2 mb 0.00 in0.0 mm 0.00 in0.0 mm 0.00 in0.0 mm
11:10 AM 37.2°F2.9°C 32.0°F0.0°C 78% 1.1 mph WSW1.8 kmh WSW 1.6 mph2.6 kmh 30.51 in1033.2 mb 0.00 in0.0 mm 0.00 in0.0 mm 0.00 in0.0 mm
11:15 AM 37.4°F3.0°C 32.0°F0.0°C 78% 0.9 mph WSW1.4 kmh WSW 1.3 mph2.1 kmh 30.51 in1033.2 mb 0.00 in0.0 mm 0.00 in0.0 mm 0.00 in0.0 mm
11:20 AM 37.6°F3.1°C 32.0°F0.0°C 78% 1.1 mph WSW1.8 kmh WSW 2.2 mph3.5 kmh 30.51 in1033.2 mb 0.00 in0.0 mm 0.00 in0.0 mm 0.00 in0.0 mm
11:25 AM 37.6°F3.1°C 32.0°F0.0°C 78% 1.4 mph WSW2.3 kmh WSW 2.2 mph3.5 kmh 30.51 in1033.2 mb 0.00 in0.0 mm 0.00 in0.0 mm 0.00 in0.0 mm
11:30 AM 37.8°F3.2°C 32.0°F0.0°C 78% 1.2 mph W1.9 kmh W 2.2 mph3.5 kmh 30.51 in1033.2 mb 0.00 in0.0 mm 0.00 in0.0 mm 0.00 in0.0 mm
11:35 AM 37.8°F3.2°C 32.0°F0.0°C 78% 0.6 mph W1.0 kmh W 1.3 mph2.1 kmh 30.51 in1033.2 mb 0.00 in0.0 mm 0.00 in0.0 mm 0.00 in0.0 mm
11:40 AM 37.9°F3.3°C 32.0°F0.0°C 78% 0.1 mph SW0.2 kmh SW 0.9 mph1.4 kmh 30.51 in1033.2 mb 0.00 in0.0 mm 0.00 in0.0 mm 0.00 in0.0 mm
11:45 AM 38.1°F3.4°C 32.0°F0.0°C 78% Calm Calm -- 30.51 in1033.2 mb 0.00 in0.0 mm 0.00 in0.0 mm 0.00 in0.0 mm
11:50 AM 38.3°F3.5°C 32.0°F0.0°C 78% Calm Calm -- 30.51 in1033.2 mb 0.00 in0.0 mm 0.00 in0.0 mm 0.00 in0.0 mm
11:55 AM 38.3°F3.5°C 32.0°F0.0°C 78% Calm Calm -- 30.51 in1033.2 mb 0.00 in0.0 mm 0.00 in0.0 mm 0.00 in0.0 mm
12:00 PM 38.5°F3.6°C 32.0°F0.0°C 78% Calm Calm -- 30.51 in1033.2 mb 0.00 in0.0 mm 0.00 in0.0 mm 0.00 in0.0 mm
12:05 PM 38.7°F3.7°C 32.0°F0.0°C 78% Calm Calm -- 30.51 in1033.2 mb 0.00 in0.0 mm 0.00 in0.0 mm 0.00 in0.0 mm
12:10 PM 38.8°F3.8°C 32.0°F0.0°C 78% Calm Calm -- 30.51 in1033.2 mb 0.00 in0.0 mm 0.00 in0.0 mm 0.00 in0.0 mm
12:15 PM 39.0°F3.9°C 33.8°F1.0°C 78% Calm Calm -- 30.51 in1033.2 mb 0.00 in0.0 mm 0.00 in0.0 mm 0.00 in0.0 mm
12:20 PM 39.2°F4.0°C 33.8°F1.0°C 78% Calm Calm -- 30.51 in1033.2 mb 0.00 in0.0 mm 0.00 in0.0 mm 0.00 in0.0 mm
12:25 PM 39.2°F4.0°C 33.8°F1.0°C 78% 0.1 mph WSW0.2 kmh WSW 1.3 mph2.1 kmh 30.48 in1032.2 mb 0.00 in0.0 mm 0.00 in0.0 mm 0.00 in0.0 mm
12:30 PM 39.4°F4.1°C 33.8°F1.0°C 78% 0.4 mph W0.6 kmh W 1.3 mph2.1 kmh 30.48 in1032.2 mb 0.00 in0.0 mm 0.00 in0.0 mm 0.00 in0.0 mm
12:35 PM 39.6°F4.2°C 33.8°F1.0°C 78% 0.7 mph WSW1.1 kmh WSW 1.6 mph2.6 kmh 30.48 in1032.2 mb 0.00 in0.0 mm 0.00 in0.0 mm 0.00 in0.0 mm
12:40 PM 39.7°F4.3°C 33.8°F1.0°C 78% 0.6 mph WSW1.0 kmh WSW 1.6 mph2.6 kmh 30.48 in1032.2 mb 0.00 in0.0 mm 0.00 in0.0 mm 0.00 in0.0 mm
12:45 PM 39.9°F4.4°C 33.8°F1.0°C 78% 1.2 mph WSW1.9 kmh WSW 2.7 mph4.3 kmh 30.48 in1032.2 mb 0.00 in0.0 mm 0.00 in0.0 mm 0.00 in0.0 mm
12:50 PM 39.9°F4.4°C 33.8°F1.0°C 78% 2.2 mph WSW3.5 kmh WSW 2.7 mph4.3 kmh 30.48 in1032.2 mb 0.00 in0.0 mm 0.00 in0.0 mm 0.00 in0.0 mm
12:55 PM 40.1°F4.5°C 33.8°F1.0°C 78% 2.1 mph WSW3.4 kmh WSW 2.7 mph4.3 kmh 30.48 in1032.2 mb 0.00 in0.0 mm 0.00 in0.0 mm 0.00 in0.0 mm
01:00 PM 40.1°F4.5°C 33.8°F1.0°C 78% 2.3 mph WSW3.7 kmh WSW 3.1 mph5.0 kmh 30.48 in1032.2 mb 0.00 in0.0 mm 0.00 in0.0 mm 0.00 in0.0 mm
01:05 PM 40.3°F4.6°C 33.8°F1.0°C 78% 2.3 mph WSW3.7 kmh WSW 3.1 mph5.0 kmh 30.48 in1032.2 mb 0.00 in0.0 mm 0.00 in0.0 mm 0.00 in0.0 mm
01:10 PM 40.5°F4.7°C 33.8°F1.0°C 78% 1.7 mph WSW2.7 kmh WSW 2.2 mph3.5 kmh 30.48 in1032.2 mb 0.00 in0.0 mm 0.00 in0.0 mm 0.00 in0.0 mm
01:15 PM 40.6°F4.8°C 33.8°F1.0°C 78% 1.5 mph WSW2.4 kmh WSW 2.2 mph3.5 kmh 30.48 in1032.2 mb 0.00 in0.0 mm 0.00 in0.0 mm 0.00 in0.0 mm
01:20 PM 40.6°F4.8°C 33.8°F1.0°C 78% 1.2 mph WSW1.9 kmh WSW 2.2 mph3.5 kmh 30.48 in1032.2 mb 0.00 in0.0 mm 0.00 in0.0 mm 0.00 in0.0 mm
01:25 PM 40.8°F4.9°C 33.8°F1.0°C 78% 0.9 mph WSW1.4 kmh WSW 1.6 mph2.6 kmh 30.48 in1032.2 mb 0.00 in0.0 mm 0.00 in0.0 mm 0.00 in0.0 mm
01:30 PM 40.8°F4.9°C 33.8°F1.0°C 78% 0.9 mph WSW1.4 kmh WSW 1.3 mph2.1 kmh 30.48 in1032.2 mb 0.00 in0.0 mm 0.00 in0.0 mm 0.00 in0.0 mm
01:35 PM 41.0°F5.0°C 35.6°F2.0°C 78% 1.0 mph WSW1.6 kmh WSW 2.0 mph3.2 kmh 30.48 in1032.2 mb 0.00 in0.0 mm 0.00 in0.0 mm 0.00 in0.0 mm
01:40 PM 41.0°F5.0°C 35.6°F2.0°C 78% 1.1 mph WSW1.8 kmh WSW 2.0 mph3.2 kmh 30.48 in1032.2 mb 0.00 in0.0 mm 0.00 in0.0 mm 0.00 in0.0 mm
01:45 PM 41.0°F5.0°C 35.6°F2.0°C 78% 0.9 mph WSW1.4 kmh WSW 1.3 mph2.1 kmh 30.48 in1032.2 mb 0.00 in0.0 mm 0.00 in0.0 mm 0.00 in0.0 mm
01:50 PM 41.0°F5.0°C 35.6°F2.0°C 78% 1.1 mph WSW1.8 kmh WSW 2.0 mph3.2 kmh 30.48 in1032.2 mb 0.00 in0.0 mm 0.00 in0.0 mm 0.00 in0.0 mm
01:55 PM 41.2°F5.1°C 35.6°F2.0°C 78% 1.5 mph WSW2.4 kmh WSW 2.7 mph4.3 kmh 30.48 in1032.2 mb 0.00 in0.0 mm 0.00 in0.0 mm 0.00 in0.0 mm
02:00 PM 41.2°F5.1°C 35.6°F2.0°C 78% 1.8 mph WSW2.9 kmh WSW 2.7 mph4.3 kmh 30.48 in1032.2 mb 0.00 in0.0 mm 0.00 in0.0 mm 0.00 in0.0 mm
02:05 PM 41.2°F5.1°C 35.6°F2.0°C 78% 1.6 mph WSW2.6 kmh WSW 2.9 mph4.7 kmh 30.48 in1032.2 mb 0.00 in0.0 mm 0.00 in0.0 mm 0.00 in0.0 mm
02:10 PM 41.2°F5.1°C 35.6°F2.0°C 78% 1.4 mph WSW2.3 kmh WSW 2.9 mph4.7 kmh 30.48 in1032.2 mb 0.00 in0.0 mm 0.00 in0.0 mm 0.00 in0.0 mm
02:15 PM 41.2°F5.1°C 35.6°F2.0°C 78% 1.3 mph WSW2.1 kmh WSW 2.5 mph4.0 kmh 30.48 in1032.2 mb 0.00 in0.0 mm 0.00 in0.0 mm 0.00 in0.0 mm
02:20 PM 41.2°F5.1°C 35.6°F2.0°C 78% 1.9 mph WSW3.1 kmh WSW 4.0 mph6.4 kmh 30.48 in1032.2 mb 0.00 in0.0 mm 0.00 in0.0 mm 0.00 in0.0 mm
02:25 PM 41.2°F5.1°C 35.6°F2.0°C 78% 1.7 mph WSW2.7 kmh WSW 4.0 mph6.4 kmh 30.48 in1032.2 mb 0.00 in0.0 mm 0.00 in0.0 mm 0.00 in0.0 mm
02:30 PM 41.2°F5.1°C 35.6°F2.0°C 78% 1.6 mph WSW2.6 kmh WSW 3.6 mph5.8 kmh 30.48 in1032.2 mb 0.00 in0.0 mm 0.00 in0.0 mm 0.00 in0.0 mm
02:35 PM 41.2°F5.1°C 35.6°F2.0°C 78% 1.6 mph WSW2.6 kmh WSW 3.6 mph5.8 kmh 30.48 in1032.2 mb 0.00 in0.0 mm 0.00 in0.0 mm 0.00 in0.0 mm
02:40 PM 41.2°F5.1°C 35.6°F2.0°C 78% 1.6 mph WSW2.6 kmh WSW 2.7 mph4.3 kmh 30.48 in1032.2 mb 0.00 in0.0 mm 0.00 in0.0 mm 0.00 in0.0 mm
02:45 PM 41.2°F5.1°C 35.6°F2.0°C 78% 1.9 mph WSW3.1 kmh WSW 2.7 mph4.3 kmh 30.48 in1032.2 mb 0.00 in0.0 mm 0.00 in0.0 mm 0.00 in0.0 mm
02:50 PM 41.2°F5.1°C 35.6°F2.0°C 78% 1.5 mph WSW2.4 kmh WSW 2.7 mph4.3 kmh 30.48 in1032.2 mb 0.00 in0.0 mm 0.00 in0.0 mm 0.00 in0.0 mm
02:55 PM 41.2°F5.1°C 35.6°F2.0°C 78% 1.3 mph WSW2.1 kmh WSW 3.1 mph5.0 kmh 30.48 in1032.2 mb 0.00 in0.0 mm 0.00 in0.0 mm 0.00 in0.0 mm
03:00 PM 41.2°F5.1°C 35.6°F2.0°C 78% 1.3 mph WSW2.1 kmh WSW 3.1 mph5.0 kmh 30.48 in1032.2 mb 0.00 in0.0 mm 0.00 in0.0 mm 0.00 in0.0 mm
03:05 PM 41.2°F5.1°C 35.6°F2.0°C 78% 1.3 mph WSW2.1 kmh WSW 2.7 mph4.3 kmh 30.48 in1032.2 mb 0.00 in0.0 mm 0.00 in0.0 mm 0.00 in0.0 mm
03:10 PM 41.2°F5.1°C 35.6°F2.0°C 78% 2.2 mph WSW3.5 kmh WSW 2.9 mph4.7 kmh 30.48 in1032.2 mb 0.00 in0.0 mm 0.00 in0.0 mm 0.00 in0.0 mm
03:15 PM 41.2°F5.1°C 35.6°F2.0°C 78% 2.3 mph WSW3.7 kmh WSW 2.9 mph4.7 kmh 30.48 in1032.2 mb 0.00 in0.0 mm 0.00 in0.0 mm 0.00 in0.0 mm
03:20 PM 41.2°F5.1°C 35.6°F2.0°C 78% 1.8 mph WSW2.9 kmh WSW 2.9 mph4.7 kmh 30.48 in1032.2 mb 0.00 in0.0 mm 0.00 in0.0 mm 0.00 in0.0 mm
03:25 PM 41.0°F5.0°C 35.6°F2.0°C 78% 1.1 mph SW1.8 kmh SW 2.7 mph4.3 kmh 30.48 in1032.2 mb 0.00 in0.0 mm 0.00 in0.0 mm 0.00 in0.0 mm
03:30 PM 41.0°F5.0°C 35.6°F2.0°C 78% 0.4 mph SW0.6 kmh SW 2.7 mph4.3 kmh 30.48 in1032.2 mb 0.00 in0.0 mm 0.00 in0.0 mm 0.00 in0.0 mm
03:35 PM 41.0°F5.0°C 35.6°F2.0°C 78% 0.1 mph WNW0.2 kmh WNW 0.9 mph1.4 kmh 30.48 in1032.2 mb 0.00 in0.0 mm 0.00 in0.0 mm 0.00 in0.0 mm
03:40 PM 40.8°F4.9°C 33.8°F1.0°C 78% 0.1 mph WNW0.2 kmh WNW 0.9 mph1.4 kmh 30.48 in1032.2 mb 0.00 in0.0 mm 0.00 in0.0 mm 0.00 in0.0 mm
03:45 PM 40.8°F4.9°C 33.8°F1.0°C 78% 0.1 mph SW0.2 kmh SW 0.9 mph1.4 kmh 30.48 in1032.2 mb 0.00 in0.0 mm 0.00 in0.0 mm 0.00 in0.0 mm
03:50 PM 40.8°F4.9°C 33.8°F1.0°C 78% 0.6 mph WSW1.0 kmh WSW 2.2 mph3.5 kmh 30.48 in1032.2 mb 0.00 in0.0 mm 0.00 in0.0 mm 0.00 in0.0 mm
03:55 PM 40.8°F4.9°C 33.8°F1.0°C 78% 0.9 mph WSW1.4 kmh WSW 2.2 mph3.5 kmh 30.48 in1032.2 mb 0.00 in0.0 mm 0.00 in0.0 mm 0.00 in0.0 mm
04:00 PM 41.0°F5.0°C 35.6°F2.0°C 78% 0.8 mph WSW1.3 kmh WSW 2.2 mph3.5 kmh 30.48 in1032.2 mb 0.00 in0.0 mm 0.00 in0.0 mm 0.00 in0.0 mm
04:05 PM 40.8°F4.9°C 33.8°F1.0°C 78% 0.7 mph WSW1.1 kmh WSW 2.2 mph3.5 kmh 30.48 in1032.2 mb 0.00 in0.0 mm 0.00 in0.0 mm 0.00 in0.0 mm
04:10 PM 40.6°F4.8°C 33.8°F1.0°C 78% 0.5 mph WSW0.8 kmh WSW 1.3 mph2.1 kmh 30.51 in1033.2 mb 0.00 in0.0 mm 0.00 in0.0 mm 0.00 in0.0 mm
04:15 PM 40.6°F4.8°C 33.8°F1.0°C 78% 0.2 mph WSW0.3 kmh WSW 1.1 mph1.8 kmh 30.51 in1033.2 mb 0.00 in0.0 mm 0.00 in0.0 mm 0.00 in0.0 mm
04:20 PM 40.6°F4.8°C 33.8°F1.0°C 78% 0.2 mph WSW0.3 kmh WSW 0.9 mph1.4 kmh 30.51 in1033.2 mb 0.00 in0.0 mm 0.00 in0.0 mm 0.00 in0.0 mm
04:25 PM 40.6°F4.8°C 33.8°F1.0°C 79% 0.2 mph WSW0.3 kmh WSW 0.9 mph1.4 kmh 30.48 in1032.2 mb 0.00 in0.0 mm 0.00 in0.0 mm 0.00 in0.0 mm
04:30 PM 40.6°F4.8°C 33.8°F1.0°C 79% 0.3 mph WSW0.5 kmh WSW 1.3 mph2.1 kmh 30.48 in1032.2 mb 0.00 in0.0 mm 0.00 in0.0 mm 0.00 in0.0 mm
04:35 PM 40.6°F4.8°C 33.8°F1.0°C 79% 0.8 mph W1.3 kmh W 1.3 mph2.1 kmh 30.48 in1032.2 mb 0.00 in0.0 mm 0.00 in0.0 mm 0.00 in0.0 mm
04:40 PM 40.8°F4.9°C 35.6°F2.0°C 79% 1.1 mph WSW1.8 kmh WSW 1.3 mph2.1 kmh 30.48 in1032.2 mb 0.00 in0.0 mm 0.00 in0.0 mm 0.00 in0.0 mm
04:45 PM 40.8°F4.9°C 35.6°F2.0°C 79% 0.6 mph WSW1.0 kmh WSW 1.1 mph1.8 kmh 30.48 in1032.2 mb 0.00 in0.0 mm 0.00 in0.0 mm 0.00 in0.0 mm
04:50 PM 40.8°F4.9°C 35.6°F2.0°C 79% 0.4 mph WSW0.6 kmh WSW 1.1 mph1.8 kmh 30.48 in1032.2 mb 0.00 in0.0 mm 0.00 in0.0 mm 0.00 in0.0 mm
04:55 PM 40.8°F4.9°C 35.6°F2.0°C 79% 0.8 mph W1.3 kmh W 1.3 mph2.1 kmh 30.48 in1032.2 mb 0.00 in0.0 mm 0.00 in0.0 mm 0.00 in0.0 mm
05:00 PM 41.0°F5.0°C 35.6°F2.0°C 79% 1.1 mph W1.8 kmh W 2.0 mph3.2 kmh 30.48 in1032.2 mb 0.00 in0.0 mm 0.00 in0.0 mm 0.00 in0.0 mm
05:05 PM 41.0°F5.0°C 35.6°F2.0°C 79% 1.4 mph W2.3 kmh W 2.0 mph3.2 kmh 30.48 in1032.2 mb 0.00 in0.0 mm 0.00 in0.0 mm 0.00 in0.0 mm
05:10 PM 41.2°F5.1°C 35.6°F2.0°C 78% 1.2 mph WNW1.9 kmh WNW 1.6 mph2.6 kmh 30.48 in1032.2 mb 0.00 in0.0 mm 0.00 in0.0 mm 0.00 in0.0 mm
05:15 PM 41.2°F5.1°C 35.6°F2.0°C 78% 1.4 mph WNW2.3 kmh WNW 2.2 mph3.5 kmh 30.48 in1032.2 mb 0.00 in0.0 mm 0.00 in0.0 mm 0.00 in0.0 mm
05:20 PM 41.4°F5.2°C 35.6°F2.0°C 78% 1.6 mph WNW2.6 kmh WNW 2.9 mph4.7 kmh 30.48 in1032.2 mb 0.00 in0.0 mm 0.00 in0.0 mm 0.00 in0.0 mm
05:25 PM 41.5°F5.3°C 35.6°F2.0°C 78% 1.9 mph NW3.1 kmh NW 3.6 mph5.8 kmh 30.48 in1032.2 mb 0.00 in0.0 mm 0.00 in0.0 mm 0.00 in0.0 mm
05:30 PM 41.4°F5.2°C 35.6°F2.0°C 78% 1.6 mph NW2.6 kmh NW 3.6 mph5.8 kmh 30.48 in1032.2 mb 0.00 in0.0 mm 0.00 in0.0 mm 0.00 in0.0 mm
05:35 PM 41.7°F5.4°C 35.6°F2.0°C 78% 1.8 mph WNW2.9 kmh WNW 6.0 mph9.7 kmh 30.48 in1032.2 mb 0.00 in0.0 mm 0.00 in0.0 mm 0.00 in0.0 mm
05:40 PM 41.7°F5.4°C 35.6°F2.0°C 78% 2.6 mph WNW4.2 kmh WNW 6.0 mph9.7 kmh 30.48 in1032.2 mb 0.00 in0.0 mm 0.00 in0.0 mm 0.00 in0.0 mm
05:45 PM 41.7°F5.4°C 35.6°F2.0°C 78% 2.7 mph NW4.3 kmh NW 4.9 mph7.9 kmh 30.48 in1032.2 mb 0.00 in0.0 mm 0.00 in0.0 mm 0.00 in0.0 mm
05:50 PM 41.5°F5.3°C 35.6°F2.0°C 77% 2.2 mph NW3.5 kmh NW 4.9 mph7.9 kmh 30.48 in1032.2 mb 0.00 in0.0 mm 0.00 in0.0 mm 0.00 in0.0 mm
05:55 PM 41.5°F5.3°C 35.6°F2.0°C 77% 1.9 mph WNW3.1 kmh WNW 4.9 mph7.9 kmh 30.48 in1032.2 mb 0.00 in0.0 mm 0.00 in0.0 mm 0.00 in0.0 mm
06:00 PM 41.5°F5.3°C 35.6°F2.0°C 77% 1.5 mph W2.4 kmh W 2.7 mph4.3 kmh 30.48 in1032.2 mb 0.00 in0.0 mm 0.00 in0.0 mm 0.00 in0.0 mm
06:05 PM 41.5°F5.3°C 35.6°F2.0°C 77% 1.7 mph WNW2.7 kmh WNW 3.8 mph6.1 kmh 30.48 in1032.2 mb 0.00 in0.0 mm 0.00 in0.0 mm 0.00 in0.0 mm
06:10 PM 41.5°F5.3°C 35.6°F2.0°C 77% 1.6 mph WNW2.6 kmh WNW 3.8 mph6.1 kmh 30.48 in1032.2 mb 0.00 in0.0 mm 0.00 in0.0 mm 0.00 in0.0 mm
06:15 PM 41.5°F5.3°C 35.6°F2.0°C 77% 1.6 mph WNW2.6 kmh WNW 3.4 mph5.5 kmh 30.48 in1032.2 mb 0.00 in0.0 mm 0.00 in0.0 mm 0.00 in0.0 mm
06:20 PM 41.5°F5.3°C 35.6°F2.0°C 77% 2.5 mph WNW4.0 kmh WNW 4.0 mph6.4 kmh 30.48 in1032.2 mb 0.00 in0.0 mm 0.00 in0.0 mm 0.00 in0.0 mm
06:25 PM 41.5°F5.3°C 35.6°F2.0°C 77% 2.5 mph WNW4.0 kmh WNW 4.0 mph6.4 kmh 30.48 in1032.2 mb 0.00 in0.0 mm 0.00 in0.0 mm 0.00 in0.0 mm
06:30 PM 41.4°F5.2°C 35.6°F2.0°C 77% 1.7 mph WNW2.7 kmh WNW 3.4 mph5.5 kmh 30.48 in1032.2 mb 0.00 in0.0 mm 0.00 in0.0 mm 0.00 in0.0 mm
06:35 PM 41.5°F5.3°C 35.6°F2.0°C 77% 1.3 mph WNW2.1 kmh WNW 2.5 mph4.0 kmh 30.48 in1032.2 mb 0.00 in0.0 mm 0.00 in0.0 mm 0.00 in0.0 mm
06:40 PM 41.4°F5.2°C 33.8°F1.0°C 76% 1.2 mph WNW1.9 kmh WNW 2.5 mph4.0 kmh 30.48 in1032.2 mb 0.00 in0.0 mm 0.00 in0.0 mm 0.00 in0.0 mm
06:45 PM 41.4°F5.2°C 33.8°F1.0°C 76% 1.4 mph WNW2.3 kmh WNW 2.9 mph4.7 kmh 30.48 in1032.2 mb 0.00 in0.0 mm 0.00 in0.0 mm 0.00 in0.0 mm
06:50 PM 41.4°F5.2°C 33.8°F1.0°C 76% 2.2 mph WNW3.5 kmh WNW 3.8 mph6.1 kmh 30.48 in1032.2 mb 0.00 in0.0 mm 0.00 in0.0 mm 0.00 in0.0 mm
06:55 PM 41.4°F5.2°C 33.8°F1.0°C 76% 2.4 mph W3.9 kmh W 3.8 mph6.1 kmh 30.48 in1032.2 mb 0.00 in0.0 mm 0.00 in0.0 mm 0.00 in0.0 mm
07:00 PM 41.4°F5.2°C 33.8°F1.0°C 76% 2.1 mph W3.4 kmh W 3.8 mph6.1 kmh 30.48 in1032.2 mb 0.00 in0.0 mm 0.00 in0.0 mm 0.00 in0.0 mm
07:05 PM 41.4°F5.2°C 33.8°F1.0°C 76% 1.9 mph W3.1 kmh W 2.9 mph4.7 kmh 30.48 in1032.2 mb 0.00 in0.0 mm 0.00 in0.0 mm 0.00 in0.0 mm
07:10 PM 41.2°F5.1°C 33.8°F1.0°C 76% 2.0 mph WSW3.2 kmh WSW 2.7 mph4.3 kmh 30.48 in1032.2 mb 0.00 in0.0 mm 0.00 in0.0 mm 0.00 in0.0 mm
07:15 PM 41.2°F5.1°C 33.8°F1.0°C 76% 2.6 mph W4.2 kmh W 3.1 mph5.0 kmh 30.48 in1032.2 mb 0.00 in0.0 mm 0.00 in0.0 mm 0.00 in0.0 mm
07:20 PM 41.2°F5.1°C 33.8°F1.0°C 76% 2.7 mph WNW4.3 kmh WNW 3.8 mph6.1 kmh 30.48 in1032.2 mb 0.00 in0.0 mm 0.00 in0.0 mm 0.00 in0.0 mm
07:25 PM 41.2°F5.1°C 33.8°F1.0°C 76% 2.9 mph WNW4.7 kmh WNW 4.9 mph7.9 kmh 30.48 in1032.2 mb 0.00 in0.0 mm 0.00 in0.0 mm 0.00 in0.0 mm
07:30 PM 41.2°F5.1°C 33.8°F1.0°C 76% 3.2 mph NW5.1 kmh NW 4.9 mph7.9 kmh 30.48 in1032.2 mb 0.00 in0.0 mm 0.00 in0.0 mm 0.00 in0.0 mm
07:35 PM 41.2°F5.1°C 33.8°F1.0°C 76% 3.0 mph NW4.8 kmh NW 4.9 mph7.9 kmh 30.48 in1032.2 mb 0.00 in0.0 mm 0.00 in0.0 mm 0.00 in0.0 mm
07:40 PM 41.2°F5.1°C 33.8°F1.0°C 76% 2.8 mph WNW4.5 kmh WNW 4.9 mph7.9 kmh 30.48 in1032.2 mb 0.00 in0.0 mm 0.00 in0.0 mm 0.00 in0.0 mm
07:45 PM 41.2°F5.1°C 33.8°F1.0°C 76% 2.4 mph W3.9 kmh W 3.8 mph6.1 kmh 30.48 in1032.2 mb 0.00 in0.0 mm 0.00 in0.0 mm 0.00 in0.0 mm
07:50 PM 41.0°F5.0°C 33.8°F1.0°C 76% 2.8 mph W4.5 kmh W 6.3 mph10.1 kmh 30.48 in1032.2 mb 0.00 in0.0 mm 0.00 in0.0 mm 0.00 in0.0 mm
07:55 PM 41.0°F5.0°C 33.8°F1.0°C 76% 2.5 mph W4.0 kmh W 6.3 mph10.1 kmh 30.48 in1032.2 mb 0.00 in0.0 mm 0.00 in0.0 mm 0.00 in0.0 mm
08:00 PM 41.0°F5.0°C 33.8°F1.0°C 76% 2.2 mph W3.5 kmh W 3.1 mph5.0 kmh 30.48 in1032.2 mb 0.00 in0.0 mm 0.00 in0.0 mm 0.00 in0.0 mm
08:05 PM 41.0°F5.0°C 33.8°F1.0°C 75% 3.0 mph W4.8 kmh W 4.7 mph7.6 kmh 30.48 in1032.2 mb 0.00 in0.0 mm 0.00 in0.0 mm 0.00 in0.0 mm
08:10 PM 41.0°F5.0°C 33.8°F1.0°C 75% 3.1 mph W5.0 kmh W 4.7 mph7.6 kmh 30.51 in1033.2 mb 0.00 in0.0 mm 0.00 in0.0 mm 0.00 in0.0 mm
08:15 PM 41.0°F5.0°C 33.8°F1.0°C 75% 3.1 mph W5.0 kmh W 5.4 mph8.7 kmh 30.51 in1033.2 mb 0.00 in0.0 mm 0.00 in0.0 mm 0.00 in0.0 mm
08:20 PM 41.0°F5.0°C 33.8°F1.0°C 75% 3.6 mph W5.8 kmh W 6.0 mph9.7 kmh 30.51 in1033.2 mb 0.00 in0.0 mm 0.00 in0.0 mm 0.00 in0.0 mm
08:25 PM 40.8°F4.9°C 33.8°F1.0°C 75% 3.2 mph W5.1 kmh W 6.0 mph9.7 kmh 30.51 in1033.2 mb 0.00 in0.0 mm 0.00 in0.0 mm 0.00 in0.0 mm
08:30 PM 40.8°F4.9°C 33.8°F1.0°C 75% 3.2 mph W5.1 kmh W 5.6 mph9.0 kmh 30.51 in1033.2 mb 0.00 in0.0 mm 0.00 in0.0 mm 0.00 in0.0 mm
08:35 PM 40.8°F4.9°C 33.8°F1.0°C 75% 3.4 mph W5.5 kmh W 5.6 mph9.0 kmh 30.51 in1033.2 mb 0.00 in0.0 mm 0.00 in0.0 mm 0.00 in0.0 mm
08:40 PM 40.8°F4.9°C 33.8°F1.0°C 75% 3.3 mph W5.3 kmh W 5.4 mph8.7 kmh 30.48 in1032.2 mb 0.00 in0.0 mm 0.00 in0.0 mm 0.00 in0.0 mm
08:45 PM 40.8°F4.9°C 33.8°F1.0°C 74% 3.2 mph W5.1 kmh W 5.4 mph8.7 kmh 30.48 in1032.2 mb 0.00 in0.0 mm 0.00 in0.0 mm 0.00 in0.0 mm
08:50 PM 40.6°F4.8°C 33.8°F1.0°C 74% 3.0 mph WSW4.8 kmh WSW 4.3 mph6.9 kmh 30.48 in1032.2 mb 0.00 in0.0 mm 0.00 in0.0 mm 0.00 in0.0 mm
08:55 PM 40.6°F4.8°C 33.8°F1.0°C 74% 3.5 mph W5.6 kmh W 6.5 mph10.5 kmh 30.48 in1032.2 mb 0.00 in0.0 mm 0.00 in0.0 mm 0.00 in0.0 mm
09:00 PM 40.6°F4.8°C 33.8°F1.0°C 74% 3.4 mph W5.5 kmh W 6.5 mph10.5 kmh 30.48 in1032.2 mb 0.00 in0.0 mm 0.00 in0.0 mm 0.00 in0.0 mm
09:05 PM 40.6°F4.8°C 33.8°F1.0°C 74% 2.6 mph W4.2 kmh W 6.5 mph10.5 kmh 30.48 in1032.2 mb 0.00 in0.0 mm 0.00 in0.0 mm 0.00 in0.0 mm
09:10 PM 40.5°F4.7°C 33.8°F1.0°C 74% 1.5 mph W2.4 kmh W 4.0 mph6.4 kmh 30.48 in1032.2 mb 0.00 in0.0 mm 0.00 in0.0 mm 0.00 in0.0 mm
09:15 PM 40.5°F4.7°C 33.8°F1.0°C 74% 0.9 mph WNW1.4 kmh WNW 2.0 mph3.2 kmh 30.48 in1032.2 mb 0.00 in0.0 mm 0.00 in0.0 mm 0.00 in0.0 mm
09:20 PM 40.5°F4.7°C 33.8°F1.0°C 74% 2.2 mph WNW3.5 kmh WNW 4.7 mph7.6 kmh 30.48 in1032.2 mb 0.00 in0.0 mm 0.00 in0.0 mm 0.00 in0.0 mm
09:25 PM 40.5°F4.7°C 33.8°F1.0°C 74% 2.6 mph WNW4.2 kmh WNW 4.7 mph7.6 kmh 30.48 in1032.2 mb 0.00 in0.0 mm 0.00 in0.0 mm 0.00 in0.0 mm
09:30 PM 40.5°F4.7°C 33.8°F1.0°C 74% 1.8 mph W2.9 kmh W 3.1 mph5.0 kmh 30.48 in1032.2 mb 0.00 in0.0 mm 0.00 in0.0 mm 0.00 in0.0 mm
09:35 PM 40.5°F4.7°C 33.8°F1.0°C 74% 2.1 mph W3.4 kmh W 3.1 mph5.0 kmh 30.48 in1032.2 mb 0.00 in0.0 mm 0.00 in0.0 mm 0.00 in0.0 mm
09:40 PM 40.5°F4.7°C 33.8°F1.0°C 74% 2.3 mph W3.7 kmh W 3.4 mph5.5 kmh 30.48 in1032.2 mb 0.00 in0.0 mm 0.00 in0.0 mm 0.00 in0.0 mm
09:45 PM 40.5°F4.7°C 33.8°F1.0°C 74% 1.9 mph W3.1 kmh W 4.7 mph7.6 kmh 30.48 in1032.2 mb 0.00 in0.0 mm 0.00 in0.0 mm 0.00 in0.0 mm
09:50 PM 40.5°F4.7°C 33.8°F1.0°C 74% 1.2 mph W1.9 kmh W 4.7 mph7.6 kmh 30.48 in1032.2 mb 0.00 in0.0 mm 0.00 in0.0 mm 0.00 in0.0 mm
09:55 PM 40.5°F4.7°C 33.8°F1.0°C 74% 0.9 mph WNW1.4 kmh WNW 2.7 mph4.3 kmh 30.48 in1032.2 mb 0.00 in0.0 mm 0.00 in0.0 mm 0.00 in0.0 mm
10:00 PM 40.3°F4.6°C 33.8°F1.0°C 74% 1.0 mph W1.6 kmh W 2.7 mph4.3 kmh 30.48 in1032.2 mb 0.00 in0.0 mm 0.00 in0.0 mm 0.00 in0.0 mm
10:05 PM 40.5°F4.7°C 33.8°F1.0°C 74% 1.4 mph W2.3 kmh W 4.0 mph6.4 kmh 30.48 in1032.2 mb 0.00 in0.0 mm 0.00 in0.0 mm 0.00 in0.0 mm
10:10 PM 40.3°F4.6°C 33.8°F1.0°C 74% 2.3 mph WNW3.7 kmh WNW 5.4 mph8.7 kmh 30.51 in1033.2 mb 0.00 in0.0 mm 0.00 in0.0 mm 0.00 in0.0 mm
10:15 PM 40.3°F4.6°C 33.8°F1.0°C 74% 1.9 mph NW3.1 kmh NW 5.4 mph8.7 kmh 30.51 in1033.2 mb 0.00 in0.0 mm 0.00 in0.0 mm 0.00 in0.0 mm
10:20 PM 40.5°F4.7°C 33.8°F1.0°C 74% 2.4 mph WNW3.9 kmh WNW 4.9 mph7.9 kmh 30.51 in1033.2 mb 0.00 in0.0 mm 0.00 in0.0 mm 0.00 in0.0 mm
10:25 PM 40.5°F4.7°C 33.8°F1.0°C 74% 3.1 mph NW5.0 kmh NW 4.9 mph7.9 kmh 30.51 in1033.2 mb 0.00 in0.0 mm 0.00 in0.0 mm 0.00 in0.0 mm
10:30 PM 40.5°F4.7°C 33.8°F1.0°C 74% 3.2 mph NW5.1 kmh NW 5.8 mph9.3 kmh 30.51 in1033.2 mb 0.00 in0.0 mm 0.00 in0.0 mm 0.00 in0.0 mm
10:35 PM 40.5°F4.7°C 32.0°F0.0°C 73% 2.8 mph NW4.5 kmh NW 5.8 mph9.3 kmh 30.51 in1033.2 mb 0.00 in0.0 mm 0.00 in0.0 mm 0.00 in0.0 mm
10:40 PM 40.5°F4.7°C 32.0°F0.0°C 73% 2.5 mph NW4.0 kmh NW 4.3 mph6.9 kmh 30.48 in1032.2 mb 0.00 in0.0 mm 0.00 in0.0 mm 0.00 in0.0 mm
10:45 PM 40.5°F4.7°C 32.0°F0.0°C 73% 2.6 mph NW4.2 kmh NW 4.3 mph6.9 kmh 30.48 in1032.2 mb 0.00 in0.0 mm 0.00 in0.0 mm 0.00 in0.0 mm
10:50 PM 40.5°F4.7°C 32.0°F0.0°C 73% 2.9 mph W4.7 kmh W 6.0 mph9.7 kmh 30.48 in1032.2 mb 0.00 in0.0 mm 0.00 in0.0 mm 0.00 in0.0 mm
10:55 PM 40.5°F4.7°C 32.0°F0.0°C 73% 3.0 mph WNW4.8 kmh WNW 6.0 mph9.7 kmh 30.48 in1032.2 mb 0.00 in0.0 mm 0.00 in0.0 mm 0.00 in0.0 mm
11:00 PM 40.5°F4.7°C 32.0°F0.0°C 73% 3.1 mph WNW5.0 kmh WNW 5.6 mph9.0 kmh 30.48 in1032.2 mb 0.00 in0.0 mm 0.00 in0.0 mm 0.00 in0.0 mm
11:05 PM 40.3°F4.6°C 32.0°F0.0°C 73% 3.3 mph WNW5.3 kmh WNW 5.6 mph9.0 kmh 30.48 in1032.2 mb 0.00 in0.0 mm 0.00 in0.0 mm 0.00 in0.0 mm
11:10 PM 40.3°F4.6°C 32.0°F0.0°C 72% 4.6 mph WNW7.4 kmh WNW 7.8 mph12.6 kmh 30.48 in1032.2 mb 0.00 in0.0 mm 0.00 in0.0 mm 0.00 in0.0 mm
11:15 PM 40.3°F4.6°C 32.0°F0.0°C 72% 5.3 mph WNW8.5 kmh WNW 7.8 mph12.6 kmh 30.48 in1032.2 mb 0.00 in0.0 mm 0.00 in0.0 mm 0.00 in0.0 mm
11:20 PM 40.3°F4.6°C 32.0°F0.0°C 72% 4.7 mph WNW7.6 kmh WNW 6.5 mph10.5 kmh 30.48 in1032.2 mb 0.00 in0.0 mm 0.00 in0.0 mm 0.00 in0.0 mm
11:25 PM 40.3°F4.6°C 32.0°F0.0°C 72% 5.3 mph NW8.5 kmh NW 10.1 mph16.3 kmh 30.48 in1032.2 mb 0.00 in0.0 mm 0.00 in0.0 mm 0.00 in0.0 mm
11:30 PM 40.3°F4.6°C 32.0°F0.0°C 72% 5.3 mph NW8.5 kmh NW 10.1 mph16.3 kmh 30.48 in1032.2 mb 0.00 in0.0 mm 0.00 in0.0 mm 0.00 in0.0 mm
11:35 PM 40.1°F4.5°C 32.0°F0.0°C 72% 4.1 mph WNW6.6 kmh WNW 8.1 mph13.0 kmh 30.48 in1032.2 mb 0.00 in0.0 mm 0.00 in0.0 mm 0.00 in0.0 mm
11:40 PM 40.1°F4.5°C 32.0°F0.0°C 72% 3.6 mph WNW5.8 kmh WNW 6.9 mph11.1 kmh 30.48 in1032.2 mb 0.00 in0.0 mm 0.00 in0.0 mm 0.00 in0.0 mm
11:45 PM 39.9°F4.4°C 32.0°F0.0°C 71% 3.4 mph W5.5 kmh W 6.9 mph11.1 kmh 30.48 in1032.2 mb 0.00 in0.0 mm 0.00 in0.0 mm 0.00 in0.0 mm
11:50 PM 39.9°F4.4°C 32.0°F0.0°C 71% 3.8 mph NW6.1 kmh NW 8.9 mph14.3 kmh 30.48 in1032.2 mb 0.00 in0.0 mm 0.00 in0.0 mm 0.00 in0.0 mm
11:55 PM 39.9°F4.4°C 32.0°F0.0°C 71% 3.7 mph NW6.0 kmh NW 8.9 mph14.3 kmh 30.48 in1032.2 mb 0.00 in0.0 mm 0.00 in0.0 mm 0.00 in0.0 mm